sensor_id;sensor_type;location;lat;lon;timestamp;P1;durP1;ratioP1;P2;durP2;ratioP2
41709;SDS011;59402;48.396;-4.472;2023-04-07T00:00:53;12.10;;;1.90;;
41709;SDS011;59402;48.396;-4.472;2023-04-07T00:03:19;12.68;;;1.70;;
41709;SDS011;59402;48.396;-4.472;2023-04-07T00:05:45;7.97;;;1.77;;
41709;SDS011;59402;48.396;-4.472;2023-04-07T00:08:11;11.73;;;1.70;;
41709;SDS011;59402;48.396;-4.472;2023-04-07T00:10:37;8.50;;;1.85;;
41709;SDS011;59402;48.396;-4.472;2023-04-07T00:13:03;13.30;;;2.05;;
41709;SDS011;59402;48.396;-4.472;2023-04-07T00:15:28;11.68;;;1.98;;
41709;SDS011;59402;48.396;-4.472;2023-04-07T00:17:55;14.43;;;2.33;;
41709;SDS011;59402;48.396;-4.472;2023-04-07T00:20:20;10.55;;;1.92;;
41709;SDS011;59402;48.396;-4.472;2023-04-07T00:22:46;14.00;;;1.75;;
41709;SDS011;59402;48.396;-4.472;2023-04-07T00:25:12;10.50;;;1.65;;
41709;SDS011;59402;48.396;-4.472;2023-04-07T00:27:38;11.00;;;1.60;;
41709;SDS011;59402;48.396;-4.472;2023-04-07T00:30:04;7.93;;;1.30;;
41709;SDS011;59402;48.396;-4.472;2023-04-07T00:32:30;7.10;;;1.38;;
41709;SDS011;59402;48.396;-4.472;2023-04-07T00:34:58;10.90;;;1.77;;
41709;SDS011;59402;48.396;-4.472;2023-04-07T00:37:24;8.73;;;1.98;;
41709;SDS011;59402;48.396;-4.472;2023-04-07T00:39:50;9.48;;;1.70;;
41709;SDS011;59402;48.396;-4.472;2023-04-07T00:42:16;10.65;;;1.65;;
41709;SDS011;59402;48.396;-4.472;2023-04-07T00:44:42;9.88;;;1.85;;
41709;SDS011;59402;48.396;-4.472;2023-04-07T00:47:08;9.02;;;1.77;;
41709;SDS011;59402;48.396;-4.472;2023-04-07T00:49:35;7.35;;;1.73;;
41709;SDS011;59402;48.396;-4.472;2023-04-07T00:52:01;12.90;;;2.58;;
41709;SDS011;59402;48.396;-4.472;2023-04-07T00:54:28;11.60;;;2.00;;
41709;SDS011;59402;48.396;-4.472;2023-04-07T00:56:54;8.13;;;1.98;;
41709;SDS011;59402;48.396;-4.472;2023-04-07T00:59:21;9.25;;;1.75;;
41709;SDS011;59402;48.396;-4.472;2023-04-07T01:02:22;9.23;;;1.90;;
41709;SDS011;59402;48.396;-4.472;2023-04-07T01:10:18;9.52;;;1.58;;
41709;SDS011;59402;48.396;-4.472;2023-04-07T01:13:04;13.48;;;2.08;;
41709;SDS011;59402;48.396;-4.472;2023-04-07T01:15:33;10.68;;;1.83;;
41709;SDS011;59402;48.396;-4.472;2023-04-07T01:18:11;8.65;;;1.80;;
41709;SDS011;59402;48.396;-4.472;2023-04-07T01:20:38;10.95;;;1.95;;
41709;SDS011;59402;48.396;-4.472;2023-04-07T01:23:05;12.77;;;2.25;;
41709;SDS011;59402;48.396;-4.472;2023-04-07T01:31:11;7.68;;;1.90;;
41709;SDS011;59402;48.396;-4.472;2023-04-07T01:33:37;9.13;;;1.85;;
41709;SDS011;59402;48.396;-4.472;2023-04-07T01:36:04;10.65;;;1.70;;
41709;SDS011;59402;48.396;-4.472;2023-04-07T01:38:31;12.98;;;2.20;;
41709;SDS011;59402;48.396;-4.472;2023-04-07T01:40:57;10.93;;;2.15;;
41709;SDS011;59402;48.396;-4.472;2023-04-07T01:43:23;8.15;;;1.52;;
41709;SDS011;59402;48.396;-4.472;2023-04-07T01:45:50;9.63;;;1.73;;
41709;SDS011;59402;48.396;-4.472;2023-04-07T01:48:18;11.60;;;2.47;;
41709;SDS011;59402;48.396;-4.472;2023-04-07T01:50:44;9.50;;;2.20;;
41709;SDS011;59402;48.396;-4.472;2023-04-07T01:53:11;9.90;;;2.13;;
41709;SDS011;59402;48.396;-4.472;2023-04-07T01:55:37;13.70;;;1.95;;
41709;SDS011;59402;48.396;-4.472;2023-04-07T01:58:05;7.70;;;1.70;;
41709;SDS011;59402;48.396;-4.472;2023-04-07T02:00:33;13.10;;;1.77;;
41709;SDS011;59402;48.396;-4.472;2023-04-07T02:03:05;10.13;;;1.55;;
41709;SDS011;59402;48.396;-4.472;2023-04-07T02:05:34;5.15;;;1.40;;
41709;SDS011;59402;48.396;-4.472;2023-04-07T02:08:02;10.50;;;1.83;;
41709;SDS011;59402;48.396;-4.472;2023-04-07T02:10:32;8.93;;;1.77;;
41709;SDS011;59402;48.396;-4.472;2023-04-07T02:13:00;7.63;;;1.83;;
41709;SDS011;59402;48.396;-4.472;2023-04-07T02:15:29;6.47;;;1.52;;
41709;SDS011;59402;48.396;-4.472;2023-04-07T02:17:56;8.65;;;2.10;;
41709;SDS011;59402;48.396;-4.472;2023-04-07T02:20:22;8.05;;;1.73;;
41709;SDS011;59402;48.396;-4.472;2023-04-07T02:22:49;8.88;;;1.60;;
41709;SDS011;59402;48.396;-4.472;2023-04-07T02:25:34;10.52;;;1.92;;
41709;SDS011;59402;48.396;-4.472;2023-04-07T02:28:02;12.57;;;1.75;;
41709;SDS011;59402;48.396;-4.472;2023-04-07T02:30:28;7.82;;;1.80;;
41709;SDS011;59402;48.396;-4.472;2023-04-07T02:32:54;9.18;;;1.60;;
41709;SDS011;59402;48.396;-4.472;2023-04-07T02:35:20;7.22;;;1.70;;
41709;SDS011;59402;48.396;-4.472;2023-04-07T02:37:46;16.45;;;2.58;;
41709;SDS011;59402;48.396;-4.472;2023-04-07T02:40:12;8.77;;;1.95;;
41709;SDS011;59402;48.396;-4.472;2023-04-07T02:42:38;13.15;;;2.30;;
41709;SDS011;59402;48.396;-4.472;2023-04-07T02:45:04;8.50;;;1.60;;
41709;SDS011;59402;48.396;-4.472;2023-04-07T02:47:34;11.30;;;1.75;;
41709;SDS011;59402;48.396;-4.472;2023-04-07T02:50:01;10.73;;;2.33;;
41709;SDS011;59402;48.396;-4.472;2023-04-07T02:52:27;8.43;;;1.73;;
41709;SDS011;59402;48.396;-4.472;2023-04-07T02:54:53;11.90;;;2.35;;
41709;SDS011;59402;48.396;-4.472;2023-04-07T02:57:22;11.98;;;1.90;;
41709;SDS011;59402;48.396;-4.472;2023-04-07T02:59:51;8.57;;;1.70;;
41709;SDS011;59402;48.396;-4.472;2023-04-07T03:02:17;10.45;;;2.28;;
41709;SDS011;59402;48.396;-4.472;2023-04-07T03:04:42;9.55;;;1.95;;
41709;SDS011;59402;48.396;-4.472;2023-04-07T03:07:08;8.32;;;1.50;;
41709;SDS011;59402;48.396;-4.472;2023-04-07T03:09:34;10.27;;;1.73;;
41709;SDS011;59402;48.396;-4.472;2023-04-07T03:12:00;8.10;;;1.45;;
41709;SDS011;59402;48.396;-4.472;2023-04-07T03:14:31;7.93;;;1.70;;
41709;SDS011;59402;48.396;-4.472;2023-04-07T03:16:58;7.90;;;1.40;;
41709;SDS011;59402;48.396;-4.472;2023-04-07T03:19:24;11.93;;;2.00;;
41709;SDS011;59402;48.396;-4.472;2023-04-07T03:21:51;9.40;;;1.25;;
41709;SDS011;59402;48.396;-4.472;2023-04-07T03:24:16;11.80;;;1.83;;
41709;SDS011;59402;48.396;-4.472;2023-04-07T03:29:30;7.13;;;1.05;;
41709;SDS011;59402;48.396;-4.472;2023-04-07T03:31:56;9.88;;;1.60;;
41709;SDS011;59402;48.396;-4.472;2023-04-07T03:34:23;12.40;;;1.77;;
41709;SDS011;59402;48.396;-4.472;2023-04-07T03:36:49;7.10;;;1.45;;
41709;SDS011;59402;48.396;-4.472;2023-04-07T03:39:15;6.85;;;1.80;;
41709;SDS011;59402;48.396;-4.472;2023-04-07T03:41:41;7.45;;;1.23;;
41709;SDS011;59402;48.396;-4.472;2023-04-07T03:44:08;8.93;;;1.40;;
41709;SDS011;59402;48.396;-4.472;2023-04-07T03:49:02;8.52;;;1.30;;
41709;SDS011;59402;48.396;-4.472;2023-04-07T03:51:29;6.47;;;1.10;;
41709;SDS011;59402;48.396;-4.472;2023-04-07T03:53:57;10.55;;;1.35;;
41709;SDS011;59402;48.396;-4.472;2023-04-07T03:56:48;9.65;;;1.73;;
41709;SDS011;59402;48.396;-4.472;2023-04-07T03:59:19;5.97;;;1.48;;
41709;SDS011;59402;48.396;-4.472;2023-04-07T04:01:56;10.35;;;1.92;;
41709;SDS011;59402;48.396;-4.472;2023-04-07T04:04:23;10.38;;;2.00;;
41709;SDS011;59402;48.396;-4.472;2023-04-07T04:06:50;7.07;;;1.25;;
41709;SDS011;59402;48.396;-4.472;2023-04-07T04:09:41;7.28;;;1.55;;
41709;SDS011;59402;48.396;-4.472;2023-04-07T04:12:07;9.98;;;1.67;;
41709;SDS011;59402;48.396;-4.472;2023-04-07T04:14:38;8.85;;;1.50;;
41709;SDS011;59402;48.396;-4.472;2023-04-07T04:17:06;8.98;;;1.48;;
41709;SDS011;59402;48.396;-4.472;2023-04-07T04:19:40;17.67;;;2.80;;
41709;SDS011;59402;48.396;-4.472;2023-04-07T04:22:26;8.90;;;1.83;;
41709;SDS011;59402;48.396;-4.472;2023-04-07T04:24:55;7.47;;;1.05;;
41709;SDS011;59402;48.396;-4.472;2023-04-07T04:27:22;8.82;;;1.73;;
41709;SDS011;59402;48.396;-4.472;2023-04-07T04:29:54;9.18;;;1.40;;
41709;SDS011;59402;48.396;-4.472;2023-04-07T04:32:30;6.93;;;1.23;;
41709;SDS011;59402;48.396;-4.472;2023-04-07T04:34:57;8.88;;;1.80;;
41709;SDS011;59402;48.396;-4.472;2023-04-07T04:37:24;8.45;;;1.35;;
41709;SDS011;59402;48.396;-4.472;2023-04-07T04:39:50;7.40;;;1.40;;
41709;SDS011;59402;48.396;-4.472;2023-04-07T04:42:19;7.40;;;1.40;;
41709;SDS011;59402;48.396;-4.472;2023-04-07T04:44:46;10.40;;;1.60;;
41709;SDS011;59402;48.396;-4.472;2023-04-07T04:47:13;8.65;;;1.70;;
41709;SDS011;59402;48.396;-4.472;2023-04-07T04:49:39;5.35;;;1.30;;
41709;SDS011;59402;48.396;-4.472;2023-04-07T04:52:05;15.02;;;2.40;;
41709;SDS011;59402;48.396;-4.472;2023-04-07T04:54:37;8.70;;;1.50;;
41709;SDS011;59402;48.396;-4.472;2023-04-07T04:57:04;5.95;;;1.15;;
41709;SDS011;59402;48.396;-4.472;2023-04-07T04:59:29;9.80;;;1.60;;
41709;SDS011;59402;48.396;-4.472;2023-04-07T05:01:59;9.60;;;1.95;;
41709;SDS011;59402;48.396;-4.472;2023-04-07T05:04:25;7.93;;;1.00;;
41709;SDS011;59402;48.396;-4.472;2023-04-07T05:06:59;7.82;;;1.25;;
41709;SDS011;59402;48.396;-4.472;2023-04-07T05:09:29;4.47;;;1.10;;
41709;SDS011;59402;48.396;-4.472;2023-04-07T05:11:55;6.97;;;1.38;;
41709;SDS011;59402;48.396;-4.472;2023-04-07T05:14:23;4.53;;;1.13;;
41709;SDS011;59402;48.396;-4.472;2023-04-07T05:16:54;8.30;;;1.58;;
41709;SDS011;59402;48.396;-4.472;2023-04-07T05:19:25;7.43;;;1.92;;
41709;SDS011;59402;48.396;-4.472;2023-04-07T05:21:55;5.40;;;1.42;;
41709;SDS011;59402;48.396;-4.472;2023-04-07T05:24:22;7.43;;;1.48;;
41709;SDS011;59402;48.396;-4.472;2023-04-07T05:26:53;8.20;;;1.75;;
41709;SDS011;59402;48.396;-4.472;2023-04-07T05:29:20;9.27;;;1.80;;
41709;SDS011;59402;48.396;-4.472;2023-04-07T05:31:46;5.28;;;1.38;;
41709;SDS011;59402;48.396;-4.472;2023-04-07T05:34:14;7.03;;;1.50;;
41709;SDS011;59402;48.396;-4.472;2023-04-07T05:36:46;7.10;;;1.60;;
41709;SDS011;59402;48.396;-4.472;2023-04-07T05:39:12;6.25;;;1.90;;
41709;SDS011;59402;48.396;-4.472;2023-04-07T05:41:38;7.70;;;2.13;;
41709;SDS011;59402;48.396;-4.472;2023-04-07T05:44:04;6.30;;;1.50;;
41709;SDS011;59402;48.396;-4.472;2023-04-07T05:46:34;6.00;;;1.25;;
41709;SDS011;59402;48.396;-4.472;2023-04-07T05:49:00;8.77;;;1.30;;
41709;SDS011;59402;48.396;-4.472;2023-04-07T05:51:26;5.55;;;1.88;;
41709;SDS011;59402;48.396;-4.472;2023-04-07T05:53:54;5.88;;;1.35;;
41709;SDS011;59402;48.396;-4.472;2023-04-07T05:56:21;7.55;;;1.55;;
41709;SDS011;59402;48.396;-4.472;2023-04-07T05:58:47;8.25;;;1.50;;
41709;SDS011;59402;48.396;-4.472;2023-04-07T06:01:14;8.20;;;1.50;;
41709;SDS011;59402;48.396;-4.472;2023-04-07T06:03:41;6.13;;;1.15;;
41709;SDS011;59402;48.396;-4.472;2023-04-07T06:06:32;5.53;;;0.82;;
41709;SDS011;59402;48.396;-4.472;2023-04-07T06:08:58;5.68;;;1.10;;
41709;SDS011;59402;48.396;-4.472;2023-04-07T06:11:25;5.65;;;1.20;;
41709;SDS011;59402;48.396;-4.472;2023-04-07T06:13:51;5.63;;;1.20;;
41709;SDS011;59402;48.396;-4.472;2023-04-07T06:16:17;5.55;;;1.17;;
41709;SDS011;59402;48.396;-4.472;2023-04-07T06:18:43;8.85;;;1.75;;
41709;SDS011;59402;48.396;-4.472;2023-04-07T06:21:09;6.10;;;1.45;;
41709;SDS011;59402;48.396;-4.472;2023-04-07T06:23:34;7.15;;;1.15;;
41709;SDS011;59402;48.396;-4.472;2023-04-07T06:26:04;5.80;;;1.70;;
41709;SDS011;59402;48.396;-4.472;2023-04-07T06:28:30;5.55;;;1.10;;
41709;SDS011;59402;48.396;-4.472;2023-04-07T06:30:58;5.82;;;1.20;;
41709;SDS011;59402;48.396;-4.472;2023-04-07T06:33:23;6.90;;;1.48;;
41709;SDS011;59402;48.396;-4.472;2023-04-07T06:35:50;3.15;;;0.90;;
41709;SDS011;59402;48.396;-4.472;2023-04-07T06:38:16;8.45;;;1.42;;
41709;SDS011;59402;48.396;-4.472;2023-04-07T06:40:41;7.93;;;1.40;;
41709;SDS011;59402;48.396;-4.472;2023-04-07T06:43:07;4.60;;;1.20;;
41709;SDS011;59402;48.396;-4.472;2023-04-07T06:45:40;4.28;;;1.10;;
41709;SDS011;59402;48.396;-4.472;2023-04-07T06:48:06;5.43;;;1.15;;
41709;SDS011;59402;48.396;-4.472;2023-04-07T06:50:31;6.65;;;1.63;;
41709;SDS011;59402;48.396;-4.472;2023-04-07T06:52:57;10.07;;;1.30;;
41709;SDS011;59402;48.396;-4.472;2023-04-07T06:55:23;4.65;;;1.00;;
41709;SDS011;59402;48.396;-4.472;2023-04-07T06:57:48;7.93;;;1.13;;
41709;SDS011;59402;48.396;-4.472;2023-04-07T07:00:16;5.07;;;1.02;;
41709;SDS011;59402;48.396;-4.472;2023-04-07T07:02:43;7.05;;;1.45;;
41709;SDS011;59402;48.396;-4.472;2023-04-07T07:05:09;5.63;;;1.30;;
41709;SDS011;59402;48.396;-4.472;2023-04-07T07:07:35;4.18;;;1.08;;
41709;SDS011;59402;48.396;-4.472;2023-04-07T07:10:01;8.25;;;1.50;;
41709;SDS011;59402;48.396;-4.472;2023-04-07T07:12:27;5.47;;;1.30;;
41709;SDS011;59402;48.396;-4.472;2023-04-07T07:14:53;4.88;;;1.20;;
41709;SDS011;59402;48.396;-4.472;2023-04-07T07:17:19;5.53;;;0.80;;
41709;SDS011;59402;48.396;-4.472;2023-04-07T07:19:44;8.82;;;1.50;;
41709;SDS011;59402;48.396;-4.472;2023-04-07T07:22:10;4.97;;;1.25;;
41709;SDS011;59402;48.396;-4.472;2023-04-07T07:24:36;3.08;;;0.70;;
41709;SDS011;59402;48.396;-4.472;2023-04-07T07:27:01;6.30;;;1.20;;
41709;SDS011;59402;48.396;-4.472;2023-04-07T07:29:27;7.32;;;1.05;;
41709;SDS011;59402;48.396;-4.472;2023-04-07T07:31:53;6.60;;;0.80;;
41709;SDS011;59402;48.396;-4.472;2023-04-07T07:34:19;5.25;;;0.85;;
41709;SDS011;59402;48.396;-4.472;2023-04-07T07:36:45;5.35;;;1.42;;
41709;SDS011;59402;48.396;-4.472;2023-04-07T07:39:10;4.78;;;1.00;;
41709;SDS011;59402;48.396;-4.472;2023-04-07T07:41:36;6.30;;;1.10;;
41709;SDS011;59402;48.396;-4.472;2023-04-07T07:44:02;7.97;;;1.73;;
41709;SDS011;59402;48.396;-4.472;2023-04-07T07:46:28;7.32;;;1.38;;
41709;SDS011;59402;48.396;-4.472;2023-04-07T07:48:53;7.20;;;1.48;;
41709;SDS011;59402;48.396;-4.472;2023-04-07T07:51:20;5.65;;;1.00;;
41709;SDS011;59402;48.396;-4.472;2023-04-07T07:53:46;4.78;;;0.70;;
41709;SDS011;59402;48.396;-4.472;2023-04-07T07:56:12;8.27;;;1.30;;
41709;SDS011;59402;48.396;-4.472;2023-04-07T07:58:38;4.90;;;1.02;;
41709;SDS011;59402;48.396;-4.472;2023-04-07T08:01:04;4.00;;;0.82;;
41709;SDS011;59402;48.396;-4.472;2023-04-07T08:03:29;5.65;;;1.10;;
41709;SDS011;59402;48.396;-4.472;2023-04-07T08:05:55;6.35;;;0.90;;
41709;SDS011;59402;48.396;-4.472;2023-04-07T08:08:21;8.48;;;1.10;;
41709;SDS011;59402;48.396;-4.472;2023-04-07T08:10:47;7.47;;;0.90;;
41709;SDS011;59402;48.396;-4.472;2023-04-07T08:13:13;6.13;;;1.10;;
41709;SDS011;59402;48.396;-4.472;2023-04-07T08:15:39;7.93;;;1.05;;
41709;SDS011;59402;48.396;-4.472;2023-04-07T08:18:05;6.03;;;0.90;;
41709;SDS011;59402;48.396;-4.472;2023-04-07T08:20:31;5.47;;;1.15;;
41709;SDS011;59402;48.396;-4.472;2023-04-07T08:22:57;5.35;;;1.30;;
41709;SDS011;59402;48.396;-4.472;2023-04-07T08:25:23;7.32;;;1.15;;
41709;SDS011;59402;48.396;-4.472;2023-04-07T08:27:48;9.07;;;1.95;;
41709;SDS011;59402;48.396;-4.472;2023-04-07T08:30:14;8.77;;;1.40;;
41709;SDS011;59402;48.396;-4.472;2023-04-07T08:32:43;8.38;;;1.30;;
41709;SDS011;59402;48.396;-4.472;2023-04-07T08:35:09;7.18;;;1.40;;
41709;SDS011;59402;48.396;-4.472;2023-04-07T08:37:36;7.60;;;1.30;;
41709;SDS011;59402;48.396;-4.472;2023-04-07T08:40:02;5.63;;;1.07;;
41709;SDS011;59402;48.396;-4.472;2023-04-07T08:42:29;9.38;;;2.03;;
41709;SDS011;59402;48.396;-4.472;2023-04-07T08:45:02;7.18;;;1.40;;
41709;SDS011;59402;48.396;-4.472;2023-04-07T08:47:29;8.95;;;1.60;;
41709;SDS011;59402;48.396;-4.472;2023-04-07T08:49:59;5.82;;;1.15;;
41709;SDS011;59402;48.396;-4.472;2023-04-07T08:52:43;6.88;;;1.50;;
41709;SDS011;59402;48.396;-4.472;2023-04-07T08:55:10;6.25;;;1.70;;
41709;SDS011;59402;48.396;-4.472;2023-04-07T08:57:36;7.65;;;1.50;;
41709;SDS011;59402;48.396;-4.472;2023-04-07T09:00:02;5.80;;;1.30;;
41709;SDS011;59402;48.396;-4.472;2023-04-07T09:02:33;6.30;;;1.50;;
41709;SDS011;59402;48.396;-4.472;2023-04-07T09:05:02;10.38;;;1.98;;
41709;SDS011;59402;48.396;-4.472;2023-04-07T09:07:30;6.68;;;1.13;;
41709;SDS011;59402;48.396;-4.472;2023-04-07T09:09:57;4.03;;;1.05;;
41709;SDS011;59402;48.396;-4.472;2023-04-07T09:12:22;5.60;;;1.10;;
41709;SDS011;59402;48.396;-4.472;2023-04-07T09:14:48;3.65;;;0.88;;
41709;SDS011;59402;48.396;-4.472;2023-04-07T09:17:14;6.07;;;1.20;;
41709;SDS011;59402;48.396;-4.472;2023-04-07T09:19:40;5.78;;;1.10;;
41709;SDS011;59402;48.396;-4.472;2023-04-07T09:22:05;6.43;;;0.80;;
41709;SDS011;59402;48.396;-4.472;2023-04-07T09:24:32;4.82;;;1.05;;
41709;SDS011;59402;48.396;-4.472;2023-04-07T09:27:07;5.85;;;1.10;;
41709;SDS011;59402;48.396;-4.472;2023-04-07T09:29:34;8.02;;;1.00;;
41709;SDS011;59402;48.396;-4.472;2023-04-07T09:32:00;5.47;;;1.23;;
41709;SDS011;59402;48.396;-4.472;2023-04-07T09:34:26;6.70;;;1.05;;
41709;SDS011;59402;48.396;-4.472;2023-04-07T09:39:19;4.28;;;0.60;;
41709;SDS011;59402;48.396;-4.472;2023-04-07T09:41:45;7.00;;;0.90;;
41709;SDS011;59402;48.396;-4.472;2023-04-07T09:44:12;4.85;;;0.70;;
41709;SDS011;59402;48.396;-4.472;2023-04-07T09:46:51;3.30;;;0.50;;
41709;SDS011;59402;48.396;-4.472;2023-04-07T09:49:18;7.55;;;0.90;;
41709;SDS011;59402;48.396;-4.472;2023-04-07T09:52:03;6.53;;;0.98;;
41709;SDS011;59402;48.396;-4.472;2023-04-07T09:54:35;4.60;;;0.60;;
41709;SDS011;59402;48.396;-4.472;2023-04-07T09:57:08;4.28;;;0.88;;
41709;SDS011;59402;48.396;-4.472;2023-04-07T09:59:36;5.45;;;0.88;;
41709;SDS011;59402;48.396;-4.472;2023-04-07T10:02:03;6.50;;;0.80;;
41709;SDS011;59402;48.396;-4.472;2023-04-07T10:04:30;4.53;;;1.17;;
41709;SDS011;59402;48.396;-4.472;2023-04-07T10:06:57;4.03;;;0.80;;
41709;SDS011;59402;48.396;-4.472;2023-04-07T10:09:25;3.78;;;0.77;;
41709;SDS011;59402;48.396;-4.472;2023-04-07T10:11:52;7.68;;;0.75;;
41709;SDS011;59402;48.396;-4.472;2023-04-07T10:14:19;5.93;;;1.10;;
41709;SDS011;59402;48.396;-4.472;2023-04-07T10:16:46;5.85;;;0.90;;
41709;SDS011;59402;48.396;-4.472;2023-04-07T10:19:14;3.53;;;0.68;;
41709;SDS011;59402;48.396;-4.472;2023-04-07T10:21:41;5.15;;;1.05;;
41709;SDS011;59402;48.396;-4.472;2023-04-07T10:24:12;4.32;;;1.20;;
41709;SDS011;59402;48.396;-4.472;2023-04-07T10:26:44;3.40;;;1.10;;
41709;SDS011;59402;48.396;-4.472;2023-04-07T10:29:14;6.93;;;1.30;;
41709;SDS011;59402;48.396;-4.472;2023-04-07T10:31:42;5.75;;;1.40;;
41709;SDS011;59402;48.396;-4.472;2023-04-07T10:34:08;3.65;;;1.17;;
41709;SDS011;59402;48.396;-4.472;2023-04-07T10:36:33;5.15;;;1.33;;
41709;SDS011;59402;48.396;-4.472;2023-04-07T10:41:35;5.78;;;1.13;;
41709;SDS011;59402;48.396;-4.472;2023-04-07T10:44:02;4.13;;;0.80;;
41709;SDS011;59402;48.396;-4.472;2023-04-07T10:49:13;2.80;;;0.70;;
41709;SDS011;59402;48.396;-4.472;2023-04-07T10:51:40;2.92;;;0.82;;
41709;SDS011;59402;48.396;-4.472;2023-04-07T10:54:16;3.10;;;0.70;;
41709;SDS011;59402;48.396;-4.472;2023-04-07T10:59:32;2.83;;;0.68;;
41709;SDS011;59402;48.396;-4.472;2023-04-07T11:02:44;1.88;;;0.47;;
41709;SDS011;59402;48.396;-4.472;2023-04-07T11:04:47;2.17;;;0.52;;
41709;SDS011;59402;48.396;-4.472;2023-04-07T11:07:13;1.58;;;0.45;;
41709;SDS011;59402;48.396;-4.472;2023-04-07T11:09:40;2.58;;;0.50;;
41709;SDS011;59402;48.396;-4.472;2023-04-07T11:12:06;2.63;;;0.70;;
41709;SDS011;59402;48.396;-4.472;2023-04-07T11:14:33;4.15;;;0.50;;
41709;SDS011;59402;48.396;-4.472;2023-04-07T11:17:02;2.33;;;0.30;;
41709;SDS011;59402;48.396;-4.472;2023-04-07T11:19:28;2.95;;;0.75;;
41709;SDS011;59402;48.396;-4.472;2023-04-07T11:22:13;3.63;;;0.70;;
41709;SDS011;59402;48.396;-4.472;2023-04-07T11:24:39;2.72;;;0.50;;
41709;SDS011;59402;48.396;-4.472;2023-04-07T11:27:08;2.53;;;0.38;;
41709;SDS011;59402;48.396;-4.472;2023-04-07T11:29:40;2.20;;;0.30;;
41709;SDS011;59402;48.396;-4.472;2023-04-07T11:32:05;2.22;;;0.50;;
41709;SDS011;59402;48.396;-4.472;2023-04-07T11:34:32;1.30;;;0.38;;
41709;SDS011;59402;48.396;-4.472;2023-04-07T11:39:55;2.45;;;0.40;;
41709;SDS011;59402;48.396;-4.472;2023-04-07T11:42:32;5.20;;;0.73;;
41709;SDS011;59402;48.396;-4.472;2023-04-07T11:44:59;2.72;;;0.57;;
41709;SDS011;59402;48.396;-4.472;2023-04-07T11:47:37;3.10;;;0.60;;
41709;SDS011;59402;48.396;-4.472;2023-04-07T11:50:04;1.85;;;0.45;;
41709;SDS011;59402;48.396;-4.472;2023-04-07T11:52:40;2.38;;;0.40;;
41709;SDS011;59402;48.396;-4.472;2023-04-07T11:55:16;2.28;;;0.50;;
41709;SDS011;59402;48.396;-4.472;2023-04-07T11:57:46;2.58;;;0.40;;
41709;SDS011;59402;48.396;-4.472;2023-04-07T12:00:12;4.10;;;0.60;;
41709;SDS011;59402;48.396;-4.472;2023-04-07T12:05:05;2.50;;;0.52;;
41709;SDS011;59402;48.396;-4.472;2023-04-07T12:07:32;2.13;;;0.52;;
41709;SDS011;59402;48.396;-4.472;2023-04-07T12:10:13;2.67;;;0.70;;
41709;SDS011;59402;48.396;-4.472;2023-04-07T12:12:43;1.83;;;0.60;;
41709;SDS011;59402;48.396;-4.472;2023-04-07T12:15:10;4.65;;;1.13;;
41709;SDS011;59402;48.396;-4.472;2023-04-07T12:17:36;2.40;;;0.70;;
41709;SDS011;59402;48.396;-4.472;2023-04-07T12:20:02;2.50;;;0.65;;
41709;SDS011;59402;48.396;-4.472;2023-04-07T12:22:28;3.95;;;0.98;;
41709;SDS011;59402;48.396;-4.472;2023-04-07T12:24:53;3.22;;;0.70;;
41709;SDS011;59402;48.396;-4.472;2023-04-07T12:27:19;6.25;;;0.75;;
41709;SDS011;59402;48.396;-4.472;2023-04-07T12:29:45;2.78;;;0.90;;
41709;SDS011;59402;48.396;-4.472;2023-04-07T12:32:10;3.38;;;0.60;;
41709;SDS011;59402;48.396;-4.472;2023-04-07T12:34:36;3.53;;;0.88;;
41709;SDS011;59402;48.396;-4.472;2023-04-07T12:37:02;3.30;;;0.73;;
41709;SDS011;59402;48.396;-4.472;2023-04-07T12:39:28;4.03;;;0.70;;
41709;SDS011;59402;48.396;-4.472;2023-04-07T12:41:53;2.90;;;0.70;;
41709;SDS011;59402;48.396;-4.472;2023-04-07T12:44:19;3.65;;;0.98;;
41709;SDS011;59402;48.396;-4.472;2023-04-07T12:46:45;3.10;;;0.60;;
41709;SDS011;59402;48.396;-4.472;2023-04-07T12:49:10;3.33;;;0.50;;
41709;SDS011;59402;48.396;-4.472;2023-04-07T12:51:36;2.42;;;0.57;;
41709;SDS011;59402;48.396;-4.472;2023-04-07T12:56:29;3.40;;;0.50;;
41709;SDS011;59402;48.396;-4.472;2023-04-07T12:58:55;2.97;;;0.60;;
41709;SDS011;59402;48.396;-4.472;2023-04-07T13:01:21;2.40;;;0.52;;
41709;SDS011;59402;48.396;-4.472;2023-04-07T13:03:46;3.67;;;0.80;;
41709;SDS011;59402;48.396;-4.472;2023-04-07T13:06:12;3.65;;;0.60;;
41709;SDS011;59402;48.396;-4.472;2023-04-07T13:08:38;3.60;;;0.65;;
41709;SDS011;59402;48.396;-4.472;2023-04-07T13:11:05;1.83;;;0.52;;
41709;SDS011;59402;48.396;-4.472;2023-04-07T13:13:31;2.17;;;0.60;;
41709;SDS011;59402;48.396;-4.472;2023-04-07T13:15:57;2.15;;;0.50;;
41709;SDS011;59402;48.396;-4.472;2023-04-07T13:18:23;1.95;;;0.47;;
41709;SDS011;59402;48.396;-4.472;2023-04-07T13:20:49;2.83;;;0.75;;
41709;SDS011;59402;48.396;-4.472;2023-04-07T13:23:14;1.98;;;0.60;;
41709;SDS011;59402;48.396;-4.472;2023-04-07T13:25:40;3.53;;;0.73;;
41709;SDS011;59402;48.396;-4.472;2023-04-07T13:28:06;2.22;;;0.70;;
41709;SDS011;59402;48.396;-4.472;2023-04-07T13:30:32;2.22;;;0.68;;
41709;SDS011;59402;48.396;-4.472;2023-04-07T13:32:58;3.33;;;0.80;;
41709;SDS011;59402;48.396;-4.472;2023-04-07T13:35:24;4.07;;;0.90;;
41709;SDS011;59402;48.396;-4.472;2023-04-07T13:37:49;4.35;;;0.90;;
41709;SDS011;59402;48.396;-4.472;2023-04-07T13:40:15;2.55;;;0.50;;
41709;SDS011;59402;48.396;-4.472;2023-04-07T13:42:41;3.42;;;0.60;;
41709;SDS011;59402;48.396;-4.472;2023-04-07T13:45:07;1.80;;;0.60;;
41709;SDS011;59402;48.396;-4.472;2023-04-07T13:47:33;4.45;;;0.80;;
41709;SDS011;59402;48.396;-4.472;2023-04-07T13:49:59;3.17;;;0.60;;
41709;SDS011;59402;48.396;-4.472;2023-04-07T13:52:26;3.72;;;0.60;;
41709;SDS011;59402;48.396;-4.472;2023-04-07T13:54:52;4.07;;;0.57;;
41709;SDS011;59402;48.396;-4.472;2023-04-07T13:57:18;1.83;;;0.50;;
41709;SDS011;59402;48.396;-4.472;2023-04-07T13:59:45;2.53;;;0.65;;
41709;SDS011;59402;48.396;-4.472;2023-04-07T14:02:13;4.15;;;0.70;;
41709;SDS011;59402;48.396;-4.472;2023-04-07T14:04:39;3.13;;;0.70;;
41709;SDS011;59402;48.396;-4.472;2023-04-07T14:07:05;5.03;;;0.63;;
41709;SDS011;59402;48.396;-4.472;2023-04-07T14:09:30;3.53;;;0.68;;
41709;SDS011;59402;48.396;-4.472;2023-04-07T14:11:56;3.88;;;0.95;;
41709;SDS011;59402;48.396;-4.472;2023-04-07T14:14:22;3.30;;;0.75;;
41709;SDS011;59402;48.396;-4.472;2023-04-07T14:16:48;3.00;;;0.73;;
41709;SDS011;59402;48.396;-4.472;2023-04-07T14:19:20;4.78;;;0.70;;
41709;SDS011;59402;48.396;-4.472;2023-04-07T14:21:48;4.38;;;0.60;;
41709;SDS011;59402;48.396;-4.472;2023-04-07T14:24:14;1.92;;;0.43;;
41709;SDS011;59402;48.396;-4.472;2023-04-07T14:26:41;5.30;;;1.35;;
41709;SDS011;59402;48.396;-4.472;2023-04-07T14:29:07;3.90;;;0.80;;
41709;SDS011;59402;48.396;-4.472;2023-04-07T14:31:33;3.25;;;0.90;;
41709;SDS011;59402;48.396;-4.472;2023-04-07T14:33:59;3.08;;;0.60;;
41709;SDS011;59402;48.396;-4.472;2023-04-07T14:36:24;2.55;;;0.60;;
41709;SDS011;59402;48.396;-4.472;2023-04-07T14:38:51;7.57;;;1.05;;
41709;SDS011;59402;48.396;-4.472;2023-04-07T14:41:18;3.10;;;0.82;;
41709;SDS011;59402;48.396;-4.472;2023-04-07T14:43:44;3.58;;;0.70;;
41709;SDS011;59402;48.396;-4.472;2023-04-07T14:46:12;2.92;;;0.70;;
41709;SDS011;59402;48.396;-4.472;2023-04-07T14:48:39;2.20;;;0.45;;
41709;SDS011;59402;48.396;-4.472;2023-04-07T14:51:10;8.10;;;0.82;;
41709;SDS011;59402;48.396;-4.472;2023-04-07T14:53:37;6.25;;;0.77;;
41709;SDS011;59402;48.396;-4.472;2023-04-07T14:56:04;3.75;;;0.50;;
41709;SDS011;59402;48.396;-4.472;2023-04-07T14:58:30;6.18;;;0.70;;
41709;SDS011;59402;48.396;-4.472;2023-04-07T15:00:56;8.13;;;0.90;;
41709;SDS011;59402;48.396;-4.472;2023-04-07T15:03:22;3.00;;;1.08;;
41709;SDS011;59402;48.396;-4.472;2023-04-07T15:05:47;2.50;;;0.77;;
41709;SDS011;59402;48.396;-4.472;2023-04-07T15:08:13;3.17;;;1.05;;
41709;SDS011;59402;48.396;-4.472;2023-04-07T15:10:39;2.63;;;0.85;;